Montrose, Pennsylvania
Current Conditions -  °F | °C
As of 10:53 AM on Sunday 23 Nov 2014 (Local Time) from KBGM Reporting Station
Overcast Overcast  
Wind Chill: 43°   Ceiling: 4500
Heat Index: 47°   Visibility: 10mi
Dew Point: 31°   Wind: 9mph
Humidity: 54%   Direction: 210°SSW
Pressure: 30.1"   Gusts: NA
Location:  41.83°N, 75.88°W
Report Text: KBGM 231553Z 21008KT 10SM OVC045 08/M01 A3010 RMK AO2 SLP201 T00831006
Loading
Personal Weather Stations






























Interactive Weather Map New forecast layout! Learn more

10-Day Weather Forecast

Advertisements
Track Severe Weather on mobile